Terminal Aerodrome Forecast
Issued by NWS

Current Version | Previous Version | Graphics & Text | Print | Product List | Glossary On
Versions: 1 2 3 4 5 6 7 8 9 10 11 12 13 14 15 16 17 18 19 20 21 22 23 24
000
FTUS41 KRLX 241306 AAA
TAFCKB
TAF AMD
KCKB 241306Z 2413/2512 00000KT P6SM SCT015
     FM241330 02003KT P6SM SCT008 BKN015
     FM241500 01004KT P6SM SCT020 BKN035
     FM241800 34005KT P6SM SCT035
     FM250900 00000KT 6SM BR BKN090=

USA.gov is the U.S. government's official web portal to all federal, state and local government web resources and services.